Time;durP1;ratioP1;P1;durP2;ratioP2;P2;SDS_P1;SDS_P2;PMS_P1;PMS_P2;Temp;Humidity;BMP_temperature;BMP_pressure;BME280_temperature;BME280_humidity;BME280_pressure;Samples;Min_cycle;Max_cycle;Signal;HPM_P1;HPM_P2
2023/06/09 00:02:37;;;;;;;14.93;11.88;;;;;;;18.53;100.00;100026.31;5587037;31;33598;-67
2023/06/09 00:05:46;;;;;;;17.33;11.73;;;;;;;18.53;100.00;100025.47;5586918;31;34186;-67
2023/06/09 00:08:53;;;;;;;16.67;13.23;;;;;;;18.50;100.00;100023.22;5586944;31;33659;-67
2023/06/09 00:12:00;;;;;;;19.55;13.38;;;;;;;18.53;100.00;100015.56;5586670;31;33849;-67
2023/06/09 00:15:10;;;;;;;15.90;13.20;;;;;;;18.63;100.00;100026.59;5586881;31;33877;-67
2023/06/09 00:18:17;;;;;;;21.33;13.27;;;;;;;18.67;100.00;100035.00;5586915;31;34032;-67
2023/06/09 00:21:25;;;;;;;17.02;12.32;;;;;;;18.73;100.00;100030.59;5586791;31;33641;-67
2023/06/09 00:24:31;;;;;;;19.95;14.38;;;;;;;18.76;100.00;100027.44;5586692;31;33965;-66
2023/06/09 00:27:46;;;;;;;18.80;13.88;;;;;;;18.73;100.00;100031.41;5586168;31;33920;-66
2023/06/09 00:30:53;;;;;;;18.17;13.80;;;;;;;18.79;100.00;100029.66;5586684;31;34108;-67
2023/06/09 00:34:03;;;;;;;18.42;13.18;;;;;;;18.81;100.00;100027.56;5586777;31;34674;-67
2023/06/09 00:37:09;;;;;;;23.75;14.35;;;;;;;18.82;100.00;100029.22;5585821;31;34046;-67
2023/06/09 00:40:16;;;;;;;17.75;13.15;;;;;;;18.82;100.00;100021.97;5586741;31;33910;-67
2023/06/09 00:43:23;;;;;;;17.65;13.50;;;;;;;18.81;100.00;100023.00;5586859;31;34483;-67
2023/06/09 00:46:31;;;;;;;15.20;13.55;;;;;;;18.81;100.00;100024.88;5584933;31;34496;-67
2023/06/09 00:49:39;;;;;;;17.03;14.03;;;;;;;18.80;100.00;100007.94;5586488;31;34343;-67
2023/06/09 00:52:47;;;;;;;17.55;13.45;;;;;;;18.82;100.00;100007.72;5586554;31;33878;-67
2023/06/09 00:55:57;;;;;;;20.83;13.62;;;;;;;18.72;100.00;100004.75;5586467;31;35245;-67
2023/06/09 00:59:07;;;;;;;17.35;14.38;;;;;;;18.70;100.00;100014.91;5586560;31;33536;-67
2023/06/09 01:02:16;;;;;;;16.83;13.82;;;;;;;18.65;100.00;100007.53;5586442;31;33946;-67
2023/06/09 01:05:23;;;;;;;20.85;14.27;;;;;;;18.65;100.00;100002.97;5586448;31;33615;-67
2023/06/09 01:08:40;;;;;;;15.10;13.47;;;;;;;18.65;100.00;99996.78;5586278;31;34729;-67
2023/06/09 01:11:54;;;;;;;21.92;15.25;;;;;;;18.60;100.00;99983.22;5586117;31;33754;-67
2023/06/09 01:15:14;;;;;;;20.77;14.43;;;;;;;18.56;100.00;99974.81;5586277;31;34622;-67
2023/06/09 01:18:25;;;;;;;18.65;14.55;;;;;;;18.58;100.00;99970.03;5586271;31;33806;-67
2023/06/09 01:21:44;;;;;;;16.80;14.70;;;;;;;18.56;100.00;99960.56;5586189;31;34647;-67
2023/06/09 01:25:17;;;;;;;18.67;14.30;;;;;;;18.55;100.00;99951.66;5586189;31;33914;-66
2023/06/09 01:28:27;;;;;;;16.65;14.75;;;;;;;18.42;100.00;99948.34;5586238;31;33910;-66
2023/06/09 01:31:34;;;;;;;18.00;14.33;;;;;;;18.26;100.00;99944.44;5585981;31;33890;-66
2023/06/09 01:34:44;;;;;;;24.77;14.43;;;;;;;18.16;100.00;99950.34;5586093;31;34475;-66
2023/06/09 01:37:53;;;;;;;16.40;14.50;;;;;;;18.11;100.00;99950.19;5586009;31;33804;-66
2023/06/09 01:41:00;;;;;;;29.87;15.25;;;;;;;18.06;100.00;99952.75;5587427;31;33999;-66
2023/06/09 01:44:07;;;;;;;22.17;16.00;;;;;;;18.01;100.00;99944.56;5588359;31;33662;-66
2023/06/09 01:47:18;;;;;;;18.30;16.20;;;;;;;17.97;100.00;99945.22;5588791;31;33604;-66
2023/06/09 01:50:41;;;;;;;22.87;16.62;;;;;;;17.94;100.00;99945.69;5588137;31;34320;-65
2023/06/09 01:53:55;;;;;;;22.15;17.52;;;;;;;17.91;100.00;99944.25;5588248;31;33510;-66
2023/06/09 01:57:14;;;;;;;23.65;18.12;;;;;;;17.86;100.00;99948.69;5587354;31;33827;-66
2023/06/09 02:00:25;;;;;;;19.58;17.25;;;;;;;17.80;100.00;99951.25;5588576;31;33781;-66
2023/06/09 02:03:36;;;;;;;21.25;17.08;;;;;;;17.78;100.00;99961.38;5588146;31;33504;-66
2023/06/09 02:06:44;;;;;;;24.90;18.08;;;;;;;17.84;100.00;99972.25;5588100;31;34586;-66
2023/06/09 02:09:53;;;;;;;27.75;19.35;;;;;;;17.92;100.00;99975.44;5588165;31;34391;-66
2023/06/09 02:13:12;;;;;;;23.17;18.52;;;;;;;17.92;100.00;99982.66;5587880;31;34058;-65
2023/06/09 02:16:21;;;;;;;22.15;17.55;;;;;;;17.96;100.00;99982.00;5588010;31;33978;-65
2023/06/09 02:19:35;;;;;;;21.37;17.73;;;;;;;17.92;100.00;99988.84;5588065;31;33771;-66
2023/06/09 02:22:43;;;;;;;25.02;18.20;;;;;;;17.93;100.00;99990.50;5587955;31;34463;-65
2023/06/09 02:25:53;;;;;;;26.37;18.25;;;;;;;17.92;100.00;99993.41;5588050;31;34340;-66
2023/06/09 02:29:00;;;;;;;21.33;17.45;;;;;;;17.92;100.00;99993.41;5588073;31;34283;-65
2023/06/09 02:32:07;;;;;;;22.50;16.98;;;;;;;17.88;100.00;99989.53;5587912;31;34052;-66
2023/06/09 02:35:13;;;;;;;24.60;17.77;;;;;;;17.85;100.00;99984.63;5587823;31;33626;-66
2023/06/09 02:38:21;;;;;;;20.85;17.25;;;;;;;17.77;100.00;99986.56;5587891;31;33738;-66
2023/06/09 02:41:28;;;;;;;16.73;13.55;;;;;;;17.77;100.00;99983.88;5587822;31;33872;-67
2023/06/09 02:44:37;;;;;;;14.68;12.40;;;;;;;17.65;100.00;99983.00;5587850;31;34049;-67
2023/06/09 02:47:43;;;;;;;12.55;8.20;;;;;;;17.62;100.00;99986.09;5587830;31;33918;-66
2023/06/09 02:50:51;;;;;;;9.70;6.60;;;;;;;17.54;100.00;99986.37;5587382;31;35022;-66
2023/06/09 02:53:58;;;;;;;8.23;5.60;;;;;;;17.41;100.00;99983.81;5587667;31;34756;-66
2023/06/09 02:57:07;;;;;;;10.88;5.37;;;;;;;17.48;100.00;99997.16;5587807;31;34523;-66
2023/06/09 03:00:14;;;;;;;7.80;4.40;;;;;;;17.35;100.00;99990.91;5587710;31;33826;-67
2023/06/09 03:03:22;;;;;;;6.23;4.03;;;;;;;17.42;100.00;99987.34;5587726;31;33847;-66
2023/06/09 03:06:29;;;;;;;5.72;3.92;;;;;;;17.28;100.00;99990.12;5587641;31;33957;-66
2023/06/09 03:09:38;;;;;;;4.28;3.35;;;;;;;17.23;100.00;99975.75;5587678;31;35189;-66
2023/06/09 03:12:44;;;;;;;6.78;3.53;;;;;;;17.12;100.00;99979.97;5587489;31;33820;-66
2023/06/09 03:15:54;;;;;;;5.62;3.40;;;;;;;17.06;100.00;99988.88;5587472;31;34005;-65
2023/06/09 03:19:03;;;;;;;4.72;2.90;;;;;;;17.00;100.00;99989.75;5587554;31;33936;-66
2023/06/09 03:22:10;;;;;;;;;;;;;;;17.01;100.00;99986.03;5587784;31;33800;-66
2023/06/09 03:25:19;;;;;;;6.72;3.30;;;;;;;16.92;100.00;99982.00;5587546;31;34855;-66
2023/06/09 03:28:24;;;;;;;4.60;3.20;;;;;;;16.84;100.00;99985.78;5587436;31;34018;-66
2023/06/09 03:31:32;;;;;;;4.80;3.40;;;;;;;16.84;100.00;100001.03;5587288;31;34869;-66
2023/06/09 03:34:40;;;;;;;5.60;3.30;;;;;;;16.85;100.00;100002.66;5587235;31;33789;-66
2023/06/09 03:37:48;;;;;;;5.90;3.28;;;;;;;16.86;100.00;99991.72;5587391;31;33715;-66
2023/06/09 03:40:54;;;;;;;4.62;3.20;;;;;;;16.86;100.00;100001.62;5587413;31;33896;-66
2023/06/09 03:44:03;;;;;;;7.95;3.53;;;;;;;16.93;100.00;99994.37;5587408;31;33888;-66
2023/06/09 03:47:14;;;;;;;5.95;3.60;;;;;;;16.93;100.00;99994.37;5587218;31;34869;-67
2023/06/09 03:50:20;;;;;;;9.48;4.30;;;;;;;16.96;100.00;99991.25;5586436;31;34744;-67
2023/06/09 03:53:29;;;;;;;8.48;4.53;;;;;;;16.88;100.00;99995.03;5587276;31;34880;-66
2023/06/09 03:56:37;;;;;;;6.43;5.20;;;;;;;16.89;100.00;99990.50;5586948;31;33834;-66
2023/06/09 03:59:48;;;;;;;7.30;5.65;;;;;;;16.89;100.00;99988.59;5587080;31;34426;-67
2023/06/09 04:02:55;;;;;;;11.70;5.72;;;;;;;16.92;100.00;99985.50;5586463;31;34238;-66
2023/06/09 04:06:04;;;;;;;9.60;6.63;;;;;;;17.02;100.00;99994.91;5586409;31;34345;-66
2023/06/09 04:09:09;;;;;;;10.43;6.40;;;;;;;17.02;100.00;100006.44;5587155;31;33806;-66
2023/06/09 04:12:17;;;;;;;12.75;7.10;;;;;;;17.07;100.00;100005.78;5587056;31;33771;-66
2023/06/09 04:15:25;;;;;;;11.75;7.87;;;;;;;17.08;100.00;100004.75;5587218;31;34595;-66
2023/06/09 04:18:35;;;;;;;11.20;8.45;;;;;;;17.14;100.00;100011.91;5586860;31;34305;-66
2023/06/09 04:21:43;;;;;;;12.10;8.95;;;;;;;17.21;100.00;100018.03;5587091;31;33744;-66
2023/06/09 04:24:51;;;;;;;13.83;9.57;;;;;;;17.29;100.00;100010.53;5587147;31;33538;-66
2023/06/09 04:28:03;;;;;;;15.77;10.15;;;;;;;17.33;100.00;100011.72;5587012;31;33832;-66
2023/06/09 04:31:11;;;;;;;13.48;9.63;;;;;;;17.30;100.00;100011.34;5587211;31;34112;-66
2023/06/09 04:34:18;;;;;;;17.17;10.00;;;;;;;17.26;100.00;100016.34;5587011;31;33742;-66
2023/06/09 04:37:26;;;;;;;18.98;10.45;;;;;;;17.28;100.00;100024.19;5586888;31;33902;-66
2023/06/09 04:40:33;;;;;;;16.50;11.20;;;;;;;17.34;100.00;100021.41;5586411;31;33919;-66
2023/06/09 04:43:41;;;;;;;30.05;12.43;;;;;;;17.38;100.00;100029.84;5586820;31;34559;-67
2023/06/09 04:46:49;;;;;;;18.60;13.43;;;;;;;17.42;100.00;100035.59;5587141;31;33703;-67
2023/06/09 04:49:57;;;;;;;16.35;13.10;;;;;;;17.47;100.00;100025.03;5586446;31;34673;-66
2023/06/09 04:53:07;;;;;;;25.08;14.40;;;;;;;17.54;100.00;100031.13;5586363;31;33610;-67
2023/06/09 04:56:16;;;;;;;15.15;13.55;;;;;;;17.56;100.00;100029.91;5586501;31;33778;-66
2023/06/09 04:59:21;;;;;;;25.15;14.70;;;;;;;17.65;100.00;100031.28;5575935;31;33700;-67
2023/06/09 05:02:25;;;;;;;17.25;14.82;;;;;;;17.68;100.00;100038.88;5567332;32;33976;-67
2023/06/09 05:05:31;;;;;;;19.42;14.02;;;;;;;17.67;100.00;100044.47;5565594;32;33817;-66
2023/06/09 05:08:39;;;;;;;19.10;14.20;;;;;;;17.78;100.00;100044.53;5578835;31;33802;-66
2023/06/09 05:11:45;;;;;;;15.98;14.13;;;;;;;17.85;100.00;100035.59;5586250;31;34113;-66
2023/06/09 05:14:55;;;;;;;13.00;9.45;;;;;;;18.06;100.00;100035.97;5586378;31;33913;-67
2023/06/09 05:18:07;;;;;;;11.20;9.07;;;;;;;17.93;100.00;100038.81;5586420;31;33993;-66
2023/06/09 05:21:15;;;;;;;13.07;8.45;;;;;;;17.92;100.00;100037.16;5581882;31;34050;-66
2023/06/09 05:24:21;;;;;;;12.37;9.00;;;;;;;18.00;100.00;100036.87;5586284;31;33600;-66
2023/06/09 05:27:25;;;;;;;13.18;8.00;;;;;;;18.09;100.00;100050.81;5583041;31;33555;-67
2023/06/09 05:30:31;;;;;;;15.02;7.85;;;;;;;17.87;100.00;100041.56;5586047;31;33699;-66
2023/06/09 05:33:36;;;;;;;10.15;7.28;;;;;;;18.07;100.00;100044.84;5586120;31;34221;-66
2023/06/09 05:36:45;;;;;;;11.50;8.10;;;;;;;18.19;100.00;100051.13;5585949;31;33882;-66
2023/06/09 05:39:50;;;;;;;14.25;8.27;;;;;;;18.18;100.00;100057.53;5585540;31;34576;-66
2023/06/09 05:42:53;;;;;;;13.32;7.78;;;;;;;17.99;100.00;100055.88;5584813;31;33838;-67
2023/06/09 05:45:58;;;;;;;12.88;8.13;;;;;;;18.07;100.00;100056.41;5580641;31;34638;-66
2023/06/09 05:49:01;;;;;;;13.43;8.02;;;;;;;18.14;100.00;100048.28;5565538;31;33965;-67
2023/06/09 05:52:06;;;;;;;17.75;8.05;;;;;;;18.09;100.00;100054.31;5583256;31;34874;-67
2023/06/09 05:55:11;;;;;;;14.68;8.25;;;;;;;17.97;100.00;100052.59;5577755;31;34346;-67
2023/06/09 05:58:18;;;;;;;12.88;8.52;;;;;;;17.86;100.00;100050.69;5573056;31;33791;-67
2023/06/09 06:01:26;;;;;;;8.07;6.87;;;;;;;17.74;100.00;100046.03;5585684;31;33728;-68
2023/06/09 06:04:32;;;;;;;9.43;5.70;;;;;;;17.58;100.00;100043.87;5573794;31;33957;-68
2023/06/09 06:07:38;;;;;;;9.30;6.20;;;;;;;17.36;100.00;100040.81;5566126;31;33921;-68
2023/06/09 06:10:45;;;;;;;13.30;6.93;;;;;;;17.27;100.00;100039.44;5565279;31;34075;-68
2023/06/09 06:13:51;;;;;;;13.88;6.03;;;;;;;17.24;100.00;100041.72;5565465;32;33893;-69
2023/06/09 06:16:59;;;;;;;10.52;5.15;;;;;;;17.24;100.00;100047.91;5565521;32;33896;-69
2023/06/09 06:20:05;;;;;;;9.60;5.72;;;;;;;17.13;100.00;100062.03;5565296;32;34059;-68
2023/06/09 06:23:13;;;;;;;9.45;4.90;;;;;;;17.14;100.00;100073.56;5568586;31;34470;-68
2023/06/09 06:26:20;;;;;;;12.68;5.80;;;;;;;17.06;100.00;100084.56;5567051;32;34602;-68
2023/06/09 06:29:29;;;;;;;4.60;4.10;;;;;;;17.03;100.00;100083.12;5568263;32;33670;-68
2023/06/09 06:32:36;;;;;;;12.63;4.90;;;;;;;16.99;100.00;100094.50;5567887;32;34910;-69
2023/06/09 06:35:44;;;;;;;12.70;5.20;;;;;;;17.03;100.00;100109.94;5569603;31;33803;-70
2023/06/09 06:38:50;;;;;;;15.32;5.80;;;;;;;17.09;100.00;100119.78;5585719;31;33914;-72
2023/06/09 06:41:58;;;;;;;15.93;5.85;;;;;;;16.96;100.00;100127.91;5587963;31;34535;-72
2023/06/09 06:45:06;;;;;;;10.52;6.55;;;;;;;16.68;100.00;100101.47;5587833;31;33925;-75
2023/06/09 06:48:13;;;;;;;12.57;6.62;;;;;;;16.53;100.00;100093.69;5588183;31;34681;-74
2023/06/09 06:51:20;;;;;;;12.70;8.52;;;;;;;16.39;100.00;100105.50;5587883;31;34538;-73
2023/06/09 06:54:25;;;;;;;16.02;8.15;;;;;;;16.37;100.00;100112.09;5587353;31;34554;-73
2023/06/09 06:57:30;;;;;;;14.82;8.07;;;;;;;16.37;100.00;100109.41;5587663;31;34206;-73
2023/06/09 07:00:37;;;;;;;15.82;8.68;;;;;;;16.41;100.00;100100.72;5588231;31;33952;-72
2023/06/09 07:03:45;;;;;;;10.40;6.28;;;;;;;16.42;100.00;100102.38;5575589;31;33793;-72
2023/06/09 07:06:51;;;;;;;7.50;5.05;;;;;;;16.37;100.00;100110.22;5587862;31;33767;-71
2023/06/09 07:09:57;;;;;;;12.32;6.20;;;;;;;16.23;100.00;100113.16;5569242;31;33679;-73
2023/06/09 07:13:05;;;;;;;9.25;6.15;;;;;;;16.10;100.00;100114.03;5568075;32;34461;-70
2023/06/09 07:16:11;;;;;;;11.90;5.93;;;;;;;16.19;100.00;100112.78;5568002;32;34289;-71
2023/06/09 07:19:20;;;;;;;6.28;4.93;;;;;;;16.15;100.00;100106.19;5568467;32;34741;-71
2023/06/09 07:22:28;;;;;;;11.00;5.10;;;;;;;16.21;100.00;100097.34;5568115;32;34464;-71
2023/06/09 07:25:36;;;;;;;8.70;5.28;;;;;;;16.15;100.00;100090.16;5567789;32;34118;-70
2023/06/09 07:28:45;;;;;;;8.77;4.68;;;;;;;16.21;100.00;100088.47;5567931;32;34064;-71
2023/06/09 07:31:52;;;;;;;14.90;4.80;;;;;;;16.28;100.00;100075.88;5568105;32;34385;-72
2023/06/09 07:34:57;;;;;;;10.15;4.60;;;;;;;16.32;100.00;100079.78;5567052;32;33891;-70
2023/06/09 07:38:05;;;;;;;8.98;4.37;;;;;;;16.30;100.00;100081.84;5580692;31;35229;-70
2023/06/09 07:41:11;;;;;;;9.35;4.07;;;;;;;16.35;100.00;100088.22;5587535;31;34424;-70
2023/06/09 07:44:18;;;;;;;8.57;4.37;;;;;;;16.48;100.00;100082.81;5587461;31;33684;-69
2023/06/09 07:47:25;;;;;;;10.02;4.75;;;;;;;16.69;100.00;100068.31;5587604;31;33903;-68
2023/06/09 07:50:34;;;;;;;6.50;3.97;;;;;;;16.79;100.00;100073.19;5576559;31;336973;-70
2023/06/09 07:54:03;;;;;;;4.57;3.90;;;;;;;16.48;100.00;100071.25;5585793;31;33967;-69
2023/06/09 07:57:09;;;;;;;6.62;4.53;;;;;;;16.38;100.00;100078.94;5586402;31;33688;-69
2023/06/09 08:00:19;;;;;;;7.85;4.30;;;;;;;16.57;100.00;100069.16;5587446;31;35467;-69
2023/06/09 08:03:25;;;;;;;6.43;4.70;;;;;;;16.56;100.00;100065.66;5587256;31;33866;-69
2023/06/09 08:06:30;;;;;;;7.62;4.00;;;;;;;16.43;100.00;100071.91;5587303;31;34703;-69
2023/06/09 08:09:39;;;;;;;9.38;3.65;;;;;;;16.63;100.00;100074.53;5587338;31;34513;-68
2023/06/09 08:12:48;;;;;;;6.25;3.47;;;;;;;16.61;100.00;100081.09;5587225;31;34079;-68
2023/06/09 08:15:59;;;;;;;6.70;3.60;;;;;;;16.65;100.00;100085.03;5586676;31;33881;-68
2023/06/09 08:19:07;;;;;;;4.18;3.30;;;;;;;16.92;100.00;100086.50;5583799;31;33669;-68
2023/06/09 08:22:14;;;;;;;3.55;2.33;;;;;;;17.04;100.00;100082.06;5587029;31;33935;-68
2023/06/09 08:25:21;;;;;;;4.32;2.80;;;;;;;17.02;100.00;100086.84;5586816;31;34388;-67
2023/06/09 08:28:29;;;;;;;11.48;6.95;;;;;;;16.89;100.00;100085.06;5586457;31;34136;-68
2023/06/09 08:31:39;;;;;;;8.05;4.30;;;;;;;16.87;100.00;100092.50;5587082;31;34708;-68
2023/06/09 08:34:49;;;;;;;5.12;3.47;;;;;;;16.96;100.00;100095.75;5586537;31;34008;-68
2023/06/09 08:37:57;;;;;;;;;;;;;;;16.79;100.00;100103.50;5573772;31;32742;-69
2023/06/09 08:41:11;;;;;;;7.07;4.10;;;;;;;16.86;100.00;100106.94;5587076;31;34128;-69
2023/06/09 08:44:19;;;;;;;7.12;3.47;;;;;;;17.01;100.00;100106.66;5586135;31;34478;-70
2023/06/09 08:47:28;;;;;;;11.98;4.22;;;;;;;17.07;100.00;100110.31;5586974;31;34564;-69
2023/06/09 08:50:41;;;;;;;7.55;4.40;;;;;;;17.13;100.00;100106.78;5578449;31;33211;-69
2023/06/09 08:53:51;;;;;;;9.38;3.70;;;;;;;17.24;100.00;100106.88;5586661;31;34410;-70
2023/06/09 08:56:58;;;;;;;9.10;4.20;;;;;;;17.27;100.00;100114.50;5586799;31;33949;-70
2023/06/09 09:00:09;;;;;;;6.03;4.37;;;;;;;17.51;100.00;100120.94;5586740;31;34879;-69
2023/06/09 09:03:15;;;;;;;5.78;4.53;;;;;;;17.67;100.00;100128.44;5586824;31;33813;-69
2023/06/09 09:06:22;;;;;;;6.32;4.70;;;;;;;17.95;100.00;100121.78;5585871;31;34359;-70
2023/06/09 09:09:30;;;;;;;6.22;4.68;;;;;;;18.14;100.00;100120.78;5586695;31;33845;-69
2023/06/09 09:12:50;;;;;;;5.57;4.40;;;;;;;18.17;100.00;100118.44;5586643;31;33806;-69
2023/06/09 09:15:59;;;;;;;9.35;4.28;;;;;;;18.33;100.00;100116.22;5586607;31;34830;-69
2023/06/09 09:19:07;;;;;;;7.05;3.92;;;;;;;18.56;100.00;100119.88;5586480;31;34778;-70
2023/06/09 09:22:14;;;;;;;4.95;3.15;;;;;;;18.86;100.00;100113.72;5586517;31;34352;-69
2023/06/09 09:25:25;;;;;;;3.10;2.50;;;;;;;18.94;100.00;100116.06;5586218;31;34447;-70
2023/06/09 09:28:40;;;;;;;3.10;2.62;;;;;;;18.66;100.00;100113.97;5586295;31;34488;-69
2023/06/09 09:31:46;;;;;;;4.37;2.95;;;;;;;18.85;100.00;100112.88;5586082;31;34079;-69
2023/06/09 09:34:51;;;;;;;3.50;2.75;;;;;;;19.04;100.00;100113.66;5586409;31;34609;-69
2023/06/09 09:37:57;;;;;;;6.30;3.10;;;;;;;18.98;100.00;100109.19;5572708;31;33704;-70
2023/06/09 09:41:05;;;;;;;5.53;2.95;;;;;;;19.10;100.00;100116.25;5586190;31;33788;-70
2023/06/09 09:44:18;;;;;;;3.78;3.00;;;;;;;19.33;100.00;100120.03;5586248;31;33787;-69
2023/06/09 09:47:26;;;;;;;5.85;3.00;;;;;;;19.65;100.00;100113.34;5585934;31;33684;-69
2023/06/09 09:50:39;;;;;;;2.70;2.40;;;;;;;19.66;100.00;100114.94;5585998;31;33614;-69
2023/06/09 09:53:50;;;;;;;2.83;2.40;;;;;;;19.86;100.00;100114.59;5585869;31;33527;-69
2023/06/09 09:56:58;;;;;;;2.65;2.37;;;;;;;19.73;100.00;100106.78;5583702;31;34548;-69
2023/06/09 10:00:11;;;;;;;5.05;3.12;;;;;;;19.66;100.00;100106.88;5585918;31;33586;-69
2023/06/09 10:03:19;;;;;;;4.03;3.10;;;;;;;19.56;100.00;100098.56;5588260;31;33954;-69
2023/06/09 10:06:29;;;;;;;4.18;3.10;;;;;;;19.45;100.00;100094.84;5588388;31;33823;-69
2023/06/09 10:09:35;;;;;;;4.25;3.42;;;;;;;19.51;100.00;100101.13;5588111;31;33838;-69
2023/06/09 10:12:43;;;;;;;4.25;3.47;;;;;;;19.88;100.00;100096.34;5588241;31;33894;-69
2023/06/09 10:15:51;;;;;;;4.55;3.60;;;;;;;20.05;100.00;100099.13;5588315;31;33967;-69
2023/06/09 10:19:02;;;;;;;3.62;2.87;;;;;;;19.91;100.00;100087.78;5588255;31;33824;-69
2023/06/09 10:22:10;;;;;;;3.40;3.10;;;;;;;19.95;100.00;100087.09;5587535;31;33889;-69
2023/06/09 10:25:19;;;;;;;5.43;3.17;;;;;;;20.11;100.00;100085.56;5587608;31;33754;-69
2023/06/09 10:28:26;;;;;;;3.47;2.87;;;;;;;20.20;100.00;100084.13;5587282;31;33532;-69
2023/06/09 10:31:39;;;;;;;4.97;3.15;;;;;;;20.08;100.00;100074.44;5587955;31;35367;-68
2023/06/09 10:34:49;;;;;;;3.58;3.03;;;;;;;19.99;100.00;100075.88;5587914;31;33842;-70
2023/06/09 10:37:57;;;;;;;4.55;2.95;;;;;;;20.03;100.00;100083.22;5587661;31;34981;-69
2023/06/09 10:41:18;;;;;;;4.03;3.33;;;;;;;19.97;100.00;100084.16;5587848;31;33848;-69
2023/06/09 10:44:53;;;;;;;5.10;3.62;;;;;;;19.89;100.00;100073.78;5588031;31;34005;-70
2023/06/09 10:48:02;;;;;;;5.30;3.67;;;;;;;19.77;100.00;100073.78;5586845;31;34345;-70
2023/06/09 10:51:27;;;;;;;7.12;4.05;;;;;;;19.52;100.00;100065.94;5587050;31;34606;-70
2023/06/09 10:54:35;;;;;;;6.10;4.20;;;;;;;19.50;100.00;100075.31;5587527;31;33921;-69
2023/06/09 10:57:43;;;;;;;7.43;4.35;;;;;;;19.55;100.00;100070.03;5587534;31;33735;-68
2023/06/09 11:01:07;;;;;;;6.97;4.50;;;;;;;19.49;100.00;100069.09;5587556;31;34571;-68
2023/06/09 11:04:38;;;;;;;7.65;5.47;;;;;;;19.60;100.00;100063.97;5587387;31;34517;-69
2023/06/09 11:07:51;;;;;;;6.35;5.07;;;;;;;19.43;100.00;100059.22;5587662;31;34003;-69
2023/06/09 11:11:14;;;;;;;6.10;4.75;;;;;;;19.50;100.00;100057.28;5586691;31;34845;-69
2023/06/09 11:14:46;;;;;;;7.32;4.72;;;;;;;19.63;100.00;100050.03;5587521;31;34172;-68
2023/06/09 11:17:52;;;;;;;9.48;5.00;;;;;;;19.86;100.00;100044.63;5586393;31;34590;-69
2023/06/09 11:21:19;;;;;;;7.25;5.10;;;;;;;19.72;100.00;100046.75;5585629;31;33797;-69
2023/06/09 11:24:46;;;;;;;8.93;5.45;;;;;;;19.95;100.00;100051.25;5586459;31;33923;-69
2023/06/09 11:27:56;;;;;;;9.55;5.20;;;;;;;20.20;100.00;100048.28;5587453;31;33924;-69
2023/06/09 11:31:04;;;;;;;5.20;4.40;;;;;;;20.59;100.00;100046.66;5587307;31;34946;-69
2023/06/09 11:34:51;;;;;;;5.93;4.37;;;;;;;20.89;100.00;100054.50;5587282;31;34547;-70
2023/06/09 11:37:59;;;;;;;5.72;3.95;;;;;;;21.51;100.00;100058.78;5587464;31;33719;-69
2023/06/09 11:41:11;;;;;;;4.65;3.70;;;;;;;22.04;100.00;100052.00;5587170;31;34018;-69
2023/06/09 11:44:19;;;;;;;5.65;3.30;;;;;;;22.48;100.00;100050.09;5587614;31;32807;-69
2023/06/09 11:47:27;;;;;;;4.87;3.10;;;;;;;22.69;100.00;100048.44;5573941;31;34474;-68
2023/06/09 11:50:46;;;;;;;5.50;4.70;;;;;;;22.75;100.00;100045.53;5586559;31;34557;-68
2023/06/09 11:53:53;;;;;;;5.70;3.62;;;;;;;22.54;100.00;100044.50;5570913;31;34619;-68
2023/06/09 11:57:00;;;;;;;5.10;4.07;;;;;;;22.47;100.00;100046.56;5570606;31;34746;-68
2023/06/09 12:00:14;;;;;;;4.68;4.28;;;;;;;22.36;100.00;100039.44;5587106;31;33612;-68
2023/06/09 12:03:23;;;;;;;6.15;4.25;;;;;;;21.63;100.00;100047.91;5587210;31;33827;-68
2023/06/09 12:06:31;;;;;;;6.45;4.40;;;;;;;21.38;100.00;100044.81;5586993;31;33559;-68
2023/06/09 12:09:37;;;;;;;7.10;5.45;;;;;;;21.95;100.00;100042.69;5586991;31;33775;-69
2023/06/09 12:12:46;;;;;;;5.45;4.87;;;;;;;21.73;100.00;100039.97;5585731;31;34460;-68
2023/06/09 12:15:52;;;;;;;6.60;5.03;;;;;;;21.75;100.00;100051.31;5587035;31;34485;-68
2023/06/09 12:18:57;;;;;;;6.10;5.28;;;;;;;21.84;100.00;100049.00;5573514;31;34770;-67
2023/06/09 12:22:02;;;;;;;4.70;4.20;;;;;;;21.80;100.00;100051.38;5567133;32;33814;-67
2023/06/09 12:25:26;;;;;;;4.80;4.32;;;;;;;21.29;100.00;100054.41;5567090;32;33763;-67
2023/06/09 12:28:34;;;;;;;5.35;4.55;;;;;;;21.25;100.00;100048.69;5566542;32;33801;-67
2023/06/09 12:31:47;;;;;;;8.10;4.72;;;;;;;21.46;100.00;100045.22;5567411;32;33567;-68
2023/06/09 12:34:59;;;;;;;5.62;4.43;;;;;;;21.48;100.00;100045.81;5567334;32;34222;-67
2023/06/09 12:38:16;;;;;;;4.25;2.80;;;;;;;21.74;100.00;100040.75;5567164;32;34490;-68
2023/06/09 12:41:24;;;;;;;4.07;3.58;;;;;;;21.55;100.00;100032.94;5567258;32;33733;-68
2023/06/09 12:44:31;;;;;;;4.00;3.28;;;;;;;22.05;100.00;100035.56;5566976;32;34081;-68
2023/06/09 12:47:49;;;;;;;6.03;3.50;;;;;;;23.22;100.00;100039.47;5570492;31;34629;-68
2023/06/09 12:50:57;;;;;;;4.47;3.42;;;;;;;23.54;100.00;100026.75;5567023;32;34620;-69
2023/06/09 12:54:05;;;;;;;4.15;3.75;;;;;;;23.34;100.00;100027.37;5577415;31;34559;-68
2023/06/09 12:57:11;;;;;;;4.43;3.47;;;;;;;24.14;100.00;100022.72;5586455;31;34215;-69
2023/06/09 13:00:18;;;;;;;3.78;2.97;;;;;;;24.38;100.00;100020.37;5586321;31;34305;-69
2023/06/09 13:03:28;;;;;;;4.75;3.45;;;;;;;24.36;100.00;100020.66;5586481;31;35344;-69
2023/06/09 13:06:36;;;;;;;3.60;2.83;;;;;;;23.92;100.00;100016.66;5586104;31;34326;-69
2023/06/09 13:09:44;;;;;;;4.20;3.20;;;;;;;25.15;100.00;100005.84;5585028;31;34580;-69
2023/06/09 13:12:51;;;;;;;3.50;3.20;;;;;;;24.57;100.00;100011.50;5586049;31;33956;-71
2023/06/09 13:15:58;;;;;;;5.50;3.20;;;;;;;24.74;100.00;99996.88;5585975;31;34152;-70
2023/06/09 13:19:05;;;;;;;3.53;3.10;;;;;;;24.46;100.00;99993.56;5586360;31;34088;-70
2023/06/09 13:22:11;;;;;;;3.55;3.03;;;;;;;25.32;100.00;99998.25;5582329;31;33662;-68
2023/06/09 13:25:17;;;;;;;4.00;3.03;;;;;;;25.37;100.00;99990.88;5574882;31;34584;-69
2023/06/09 13:28:24;;;;;;;4.72;3.22;;;;;;;25.59;100.00;99987.91;5586023;31;33919;-69
2023/06/09 13:31:30;;;;;;;5.93;2.72;;;;;;;25.88;100.00;99982.62;5572332;31;34663;-69
2023/06/09 13:34:37;;;;;;;3.40;2.65;;;;;;;26.56;90.42;99974.69;5584862;31;33814;-69
2023/06/09 13:37:45;;;;;;;3.53;2.55;;;;;;;25.37;91.11;99981.91;5584985;31;34402;-70
2023/06/09 13:40:52;;;;;;;3.47;2.95;;;;;;;24.34;100.00;99982.16;5582333;31;34102;-68
2023/06/09 13:44:03;;;;;;;5.37;3.47;;;;;;;23.87;100.00;99973.31;5582276;31;34644;-67
2023/06/09 13:47:09;;;;;;;8.98;3.35;;;;;;;23.43;100.00;99973.56;5585166;31;33760;-67
2023/06/09 13:50:16;;;;;;;4.25;3.10;;;;;;;23.18;100.00;99971.53;5585294;31;33874;-67
2023/06/09 13:53:22;;;;;;;5.72;3.03;;;;;;;22.78;100.00;99969.31;5584784;31;33904;-67
2023/06/09 13:56:26;;;;;;;8.35;3.40;;;;;;;23.20;100.00;99972.06;5585032;31;33687;-70
2023/06/09 13:59:32;;;;;;;5.47;3.78;;;;;;;22.61;100.00;99968.56;5585203;31;34498;-68
2023/06/09 14:02:39;;;;;;;5.20;3.28;;;;;;;22.79;100.00;99965.56;5585351;31;33815;-69
2023/06/09 14:05:44;;;;;;;3.60;3.08;;;;;;;22.71;100.00;99965.19;5585455;31;34099;-68
2023/06/09 14:08:49;;;;;;;3.83;2.78;;;;;;;23.09;100.00;99953.34;5585106;31;33913;-68
2023/06/09 14:11:55;;;;;;;4.45;3.10;;;;;;;23.57;100.00;99955.84;5584819;31;33845;-66
2023/06/09 14:15:11;;;;;;;5.40;3.10;;;;;;;23.87;100.00;99959.75;5584915;31;34745;-67
2023/06/09 14:18:18;;;;;;;3.87;2.95;;;;;;;23.83;100.00;99968.41;5578163;31;34106;-67
2023/06/09 14:21:23;;;;;;;5.25;2.50;;;;;;;23.88;100.00;99966.78;5574736;31;32550;-66
2023/06/09 14:24:29;;;;;;;4.15;2.67;;;;;;;24.35;100.00;99962.06;5571534;31;33937;-67
2023/06/09 14:27:36;;;;;;;3.10;2.20;;;;;;;24.61;100.00;99971.06;5568683;31;34705;-67